sensor_id;sensor_type;location;lat;lon;timestamp;pressure;altitude;pressure_sealevel;temperature;humidity
18436;BME280;9346;52.006;4.720;2022-10-31T00:00:31;101968.38;;;12.97;100.00
18436;BME280;9346;52.006;4.720;2022-10-31T00:02:59;101973.91;;;12.97;100.00
18436;BME280;9346;52.006;4.720;2022-10-31T00:05:26;101968.38;;;12.97;100.00
18436;BME280;9346;52.006;4.720;2022-10-31T00:07:55;101968.09;;;12.93;100.00
18436;BME280;9346;52.006;4.720;2022-10-31T00:10:23;101968.03;;;12.88;100.00
18436;BME280;9346;52.006;4.720;2022-10-31T00:12:51;101966.63;;;12.86;100.00
18436;BME280;9346;52.006;4.720;2022-10-31T00:15:18;101975.44;;;12.83;100.00
18436;BME280;9346;52.006;4.720;2022-10-31T00:17:45;101969.28;;;12.76;100.00
18436;BME280;9346;52.006;4.720;2022-10-31T00:20:12;101968.41;;;12.70;100.00
18436;BME280;9346;52.006;4.720;2022-10-31T00:22:39;101970.84;;;12.67;100.00
18436;BME280;9346;52.006;4.720;2022-10-31T00:25:10;101974.13;;;12.64;100.00
18436;BME280;9346;52.006;4.720;2022-10-31T00:27:37;101981.31;;;12.65;100.00
18436;BME280;9346;52.006;4.720;2022-10-31T00:30:05;101981.91;;;12.67;100.00
18436;BME280;9346;52.006;4.720;2022-10-31T00:32:32;101980.53;;;12.69;100.00
18436;BME280;9346;52.006;4.720;2022-10-31T00:35:00;101984.47;;;12.73;100.00
18436;BME280;9346;52.006;4.720;2022-10-31T00:37:27;101988.91;;;12.74;100.00
18436;BME280;9346;52.006;4.720;2022-10-31T00:39:54;101991.69;;;12.74;100.00
18436;BME280;9346;52.006;4.720;2022-10-31T00:42:23;101985.00;;;12.70;100.00
18436;BME280;9346;52.006;4.720;2022-10-31T00:44:50;101991.56;;;12.64;100.00
18436;BME280;9346;52.006;4.720;2022-10-31T00:47:17;101992.34;;;12.60;100.00
18436;BME280;9346;52.006;4.720;2022-10-31T00:49:44;101995.03;;;12.55;100.00
18436;BME280;9346;52.006;4.720;2022-10-31T00:52:11;101999.44;;;12.51;100.00
18436;BME280;9346;52.006;4.720;2022-10-31T00:54:39;102001.84;;;12.47;100.00
18436;BME280;9346;52.006;4.720;2022-10-31T00:57:06;101998.53;;;12.45;100.00
18436;BME280;9346;52.006;4.720;2022-10-31T00:59:35;101994.94;;;12.45;100.00
18436;BME280;9346;52.006;4.720;2022-10-31T01:02:02;102003.56;;;12.48;100.00
18436;BME280;9346;52.006;4.720;2022-10-31T01:04:29;101994.16;;;12.49;100.00
18436;BME280;9346;52.006;4.720;2022-10-31T01:06:56;101978.16;;;12.51;100.00
18436;BME280;9346;52.006;4.720;2022-10-31T01:09:23;101967.09;;;12.51;100.00
18436;BME280;9346;52.006;4.720;2022-10-31T01:11:51;101968.78;;;12.52;100.00
18436;BME280;9346;52.006;4.720;2022-10-31T01:14:18;101963.81;;;12.54;100.00
18436;BME280;9346;52.006;4.720;2022-10-31T01:16:47;101965.75;;;12.54;100.00
18436;BME280;9346;52.006;4.720;2022-10-31T01:19:14;101971.53;;;12.52;100.00
18436;BME280;9346;52.006;4.720;2022-10-31T01:21:41;101965.16;;;12.52;100.00
18436;BME280;9346;52.006;4.720;2022-10-31T01:24:08;101959.88;;;12.50;100.00
18436;BME280;9346;52.006;4.720;2022-10-31T01:26:35;101957.38;;;12.49;100.00
18436;BME280;9346;52.006;4.720;2022-10-31T01:29:05;101956.84;;;12.47;100.00
18436;BME280;9346;52.006;4.720;2022-10-31T01:31:35;101953.22;;;12.46;100.00
18436;BME280;9346;52.006;4.720;2022-10-31T01:34:05;101953.22;;;12.46;100.00
18436;BME280;9346;52.006;4.720;2022-10-31T01:36:34;101955.97;;;12.46;100.00
18436;BME280;9346;52.006;4.720;2022-10-31T01:39:04;101947.13;;;12.44;100.00
18436;BME280;9346;52.006;4.720;2022-10-31T01:41:33;101941.63;;;12.44;100.00
18436;BME280;9346;52.006;4.720;2022-10-31T01:44:03;101943.78;;;12.42;100.00
18436;BME280;9346;52.006;4.720;2022-10-31T01:46:33;101944.91;;;12.41;100.00
18436;BME280;9346;52.006;4.720;2022-10-31T01:49:08;101945.97;;;12.40;100.00
18436;BME280;9346;52.006;4.720;2022-10-31T01:51:38;101943.47;;;12.39;100.00
18436;BME280;9346;52.006;4.720;2022-10-31T01:54:11;101943.19;;;12.40;100.00
18436;BME280;9346;52.006;4.720;2022-10-31T01:56:42;101945.16;;;12.40;100.00
18436;BME280;9346;52.006;4.720;2022-10-31T01:59:13;101939.28;;;12.36;100.00
18436;BME280;9346;52.006;4.720;2022-10-31T02:01:43;101941.44;;;12.29;100.00
18436;BME280;9346;52.006;4.720;2022-10-31T02:04:13;101942.53;;;12.28;100.00
18436;BME280;9346;52.006;4.720;2022-10-31T02:06:46;101938.94;;;12.28;100.00
18436;BME280;9346;52.006;4.720;2022-10-31T02:09:16;101935.84;;;12.24;100.00
18436;BME280;9346;52.006;4.720;2022-10-31T02:11:49;101941.63;;;12.23;100.00
18436;BME280;9346;52.006;4.720;2022-10-31T02:14:18;101939.13;;;12.21;100.00
18436;BME280;9346;52.006;4.720;2022-10-31T02:16:45;101937.47;;;12.20;100.00
18436;BME280;9346;52.006;4.720;2022-10-31T02:19:18;101941.59;;;12.18;100.00
18436;BME280;9346;52.006;4.720;2022-10-31T02:21:53;101938.47;;;12.14;100.00
18436;BME280;9346;52.006;4.720;2022-10-31T02:24:42;101938.47;;;12.14;100.00
18436;BME280;9346;52.006;4.720;2022-10-31T02:27:18;101945.13;;;12.13;100.00
18436;BME280;9346;52.006;4.720;2022-10-31T02:30:03;101940.94;;;12.11;100.00
18436;BME280;9346;52.006;4.720;2022-10-31T02:32:41;101940.09;;;12.10;100.00
18436;BME280;9346;52.006;4.720;2022-10-31T02:35:14;101938.97;;;12.06;100.00
18436;BME280;9346;52.006;4.720;2022-10-31T02:37:48;101941.72;;;12.06;100.00
18436;BME280;9346;52.006;4.720;2022-10-31T02:40:21;101938.97;;;12.06;100.00
18436;BME280;9346;52.006;4.720;2022-10-31T02:42:57;101940.03;;;12.05;100.00
18436;BME280;9346;52.006;4.720;2022-10-31T02:45:29;101942.78;;;12.05;100.00
18436;BME280;9346;52.006;4.720;2022-10-31T02:48:08;101943.88;;;12.04;100.00
18436;BME280;9346;52.006;4.720;2022-10-31T02:50:40;101938.63;;;12.03;100.00
18436;BME280;9346;52.006;4.720;2022-10-31T02:53:09;101934.47;;;12.00;100.00
18436;BME280;9346;52.006;4.720;2022-10-31T02:55:50;101944.66;;;12.00;100.00
18436;BME280;9346;52.006;4.720;2022-10-31T02:58:21;101943.75;;;11.94;100.00
18436;BME280;9346;52.006;4.720;2022-10-31T03:01:00;101941.78;;;11.90;100.00
18436;BME280;9346;52.006;4.720;2022-10-31T03:03:36;101942.50;;;11.80;100.00
18436;BME280;9346;52.006;4.720;2022-10-31T03:06:14;101941.16;;;11.66;100.00
18436;BME280;9346;52.006;4.720;2022-10-31T03:08:51;101939.09;;;11.57;100.00
18436;BME280;9346;52.006;4.720;2022-10-31T03:11:23;101948.63;;;11.49;100.00
18436;BME280;9346;52.006;4.720;2022-10-31T03:13:59;101938.19;;;11.34;100.00
18436;BME280;9346;52.006;4.720;2022-10-31T03:16:31;101939.41;;;11.22;100.00
18436;BME280;9346;52.006;4.720;2022-10-31T03:19:05;101940.97;;;11.18;100.00
18436;BME280;9346;52.006;4.720;2022-10-31T03:21:37;101942.31;;;11.15;100.00
18436;BME280;9346;52.006;4.720;2022-10-31T03:24:09;101953.34;;;11.15;100.00
18436;BME280;9346;52.006;4.720;2022-10-31T03:26:38;101946.16;;;11.14;100.00
18436;BME280;9346;52.006;4.720;2022-10-31T03:29:08;101950.16;;;11.07;100.00
18436;BME280;9346;52.006;4.720;2022-10-31T03:31:40;101951.75;;;11.03;100.00
18436;BME280;9346;52.006;4.720;2022-10-31T03:34:12;101947.66;;;11.05;100.00
18436;BME280;9346;52.006;4.720;2022-10-31T03:36:40;101951.50;;;11.04;100.00
18436;BME280;9346;52.006;4.720;2022-10-31T03:39:13;101946.81;;;11.05;100.00
18436;BME280;9346;52.006;4.720;2022-10-31T03:41:43;101950.16;;;11.07;100.00
18436;BME280;9346;52.006;4.720;2022-10-31T03:44:16;101949.41;;;11.11;100.00
18436;BME280;9346;52.006;4.720;2022-10-31T03:46:44;101950.84;;;11.14;100.00
18436;BME280;9346;52.006;4.720;2022-10-31T03:49:14;101946.47;;;11.18;100.00
18436;BME280;9346;52.006;4.720;2022-10-31T03:51:44;101945.06;;;11.15;100.00
18436;BME280;9346;52.006;4.720;2022-10-31T03:54:19;101947.06;;;11.20;100.00
18436;BME280;9346;52.006;4.720;2022-10-31T03:56:52;101937.13;;;11.19;100.00
18436;BME280;9346;52.006;4.720;2022-10-31T03:59:24;101937.94;;;11.19;100.00
18436;BME280;9346;52.006;4.720;2022-10-31T04:01:57;101926.16;;;11.24;100.00
18436;BME280;9346;52.006;4.720;2022-10-31T04:04:29;101928.38;;;11.22;100.00
18436;BME280;9346;52.006;4.720;2022-10-31T04:06:58;101927.25;;;11.23;100.00
18436;BME280;9346;52.006;4.720;2022-10-31T04:09:29;101932.78;;;11.23;100.00
18436;BME280;9346;52.006;4.720;2022-10-31T04:12:00;101939.91;;;11.19;100.00
18436;BME280;9346;52.006;4.720;2022-10-31T04:14:29;101942.66;;;11.19;100.00
18436;BME280;9346;52.006;4.720;2022-10-31T04:16:57;101932.44;;;11.19;100.00
18436;BME280;9346;52.006;4.720;2022-10-31T04:19:28;101940.47;;;11.21;100.00
18436;BME280;9346;52.006;4.720;2022-10-31T04:21:56;101938.53;;;11.21;100.00
18436;BME280;9346;52.006;4.720;2022-10-31T04:24:23;101936.88;;;11.20;100.00
18436;BME280;9346;52.006;4.720;2022-10-31T04:26:50;101938.19;;;11.18;100.00
18436;BME280;9346;52.006;4.720;2022-10-31T04:29:17;101936.47;;;11.12;100.00
18436;BME280;9346;52.006;4.720;2022-10-31T04:31:45;101939.00;;;11.13;100.00
18436;BME280;9346;52.006;4.720;2022-10-31T04:34:11;101937.63;;;11.16;100.00
18436;BME280;9346;52.006;4.720;2022-10-31T04:36:40;101941.47;;;11.15;100.00
18436;BME280;9346;52.006;4.720;2022-10-31T04:39:07;101931.88;;;11.17;100.00
18436;BME280;9346;52.006;4.720;2022-10-31T04:41:34;101932.94;;;11.16;100.00
18436;BME280;9346;52.006;4.720;2022-10-31T04:44:01;101930.19;;;11.16;100.00
18436;BME280;9346;52.006;4.720;2022-10-31T04:46:28;101932.94;;;11.16;100.00
18436;BME280;9346;52.006;4.720;2022-10-31T04:48:56;101932.94;;;11.16;100.00
18436;BME280;9346;52.006;4.720;2022-10-31T04:51:23;101937.63;;;11.16;100.00
18436;BME280;9346;52.006;4.720;2022-10-31T04:53:52;101929.63;;;11.14;100.00
18436;BME280;9346;52.006;4.720;2022-10-31T04:56:19;101929.03;;;11.12;100.00
18436;BME280;9346;52.006;4.720;2022-10-31T04:58:45;101939.00;;;11.13;100.00
18436;BME280;9346;52.006;4.720;2022-10-31T05:01:13;101933.47;;;11.13;100.00
18436;BME280;9346;52.006;4.720;2022-10-31T05:03:40;101940.56;;;11.09;100.00
18436;BME280;9346;52.006;4.720;2022-10-31T05:06:07;101936.13;;;11.08;100.00
18436;BME280;9346;52.006;4.720;2022-10-31T05:08:34;101938.88;;;11.08;100.00
18436;BME280;9346;52.006;4.720;2022-10-31T05:11:04;101936.97;;;11.09;100.00
18436;BME280;9346;52.006;4.720;2022-10-31T05:13:33;101934.22;;;11.09;100.00
18436;BME280;9346;52.006;4.720;2022-10-31T05:16:00;101927.38;;;11.11;100.00
18436;BME280;9346;52.006;4.720;2022-10-31T05:18:28;101921.84;;;11.11;100.00
18436;BME280;9346;52.006;4.720;2022-10-31T05:20:56;101921.59;;;11.13;100.00
18436;BME280;9346;52.006;4.720;2022-10-31T05:23:23;101915.22;;;11.12;100.00
18436;BME280;9346;52.006;4.720;2022-10-31T05:25:50;101918.25;;;11.11;100.00
18436;BME280;9346;52.006;4.720;2022-10-31T05:28:19;101909.41;;;11.09;100.00
18436;BME280;9346;52.006;4.720;2022-10-31T05:30:45;101919.09;;;11.11;100.00
18436;BME280;9346;52.006;4.720;2022-10-31T05:33:13;101909.97;;;11.11;100.00
18436;BME280;9346;52.006;4.720;2022-10-31T05:35:40;101906.41;;;11.10;100.00
18436;BME280;9346;52.006;4.720;2022-10-31T05:38:08;101905.06;;;11.13;100.00
18436;BME280;9346;52.006;4.720;2022-10-31T05:40:35;101909.47;;;11.14;100.00
18436;BME280;9346;52.006;4.720;2022-10-31T05:43:02;101907.81;;;11.13;100.00
18436;BME280;9346;52.006;4.720;2022-10-31T05:45:31;101917.75;;;11.14;100.00
18436;BME280;9346;52.006;4.720;2022-10-31T05:48:00;101916.09;;;11.13;100.00
18436;BME280;9346;52.006;4.720;2022-10-31T05:50:30;101913.31;;;11.13;100.00
18436;BME280;9346;52.006;4.720;2022-10-31T05:52:58;101912.72;;;11.11;100.00
18436;BME280;9346;52.006;4.720;2022-10-31T05:55:26;101908.91;;;11.12;100.00
18436;BME280;9346;52.006;4.720;2022-10-31T05:57:54;101914.97;;;11.14;100.00
18436;BME280;9346;52.006;4.720;2022-10-31T06:00:22;101913.06;;;11.14;100.00
18436;BME280;9346;52.006;4.720;2022-10-31T06:02:57;101911.13;;;11.15;100.00
18436;BME280;9346;52.006;4.720;2022-10-31T06:05:25;101911.41;;;11.13;100.00
18436;BME280;9346;52.006;4.720;2022-10-31T06:07:52;101912.22;;;11.14;100.00
18436;BME280;9346;52.006;4.720;2022-10-31T06:10:19;101905.63;;;11.15;100.00
18436;BME280;9346;52.006;4.720;2022-10-31T06:12:47;101906.72;;;11.14;100.00
18436;BME280;9346;52.006;4.720;2022-10-31T06:15:14;101908.31;;;11.10;100.00
18436;BME280;9346;52.006;4.720;2022-10-31T06:17:41;101916.34;;;11.11;100.00
18436;BME280;9346;52.006;4.720;2022-10-31T06:20:11;101919.69;;;11.13;100.00
18436;BME280;9346;52.006;4.720;2022-10-31T06:22:38;101918.59;;;11.14;100.00
18436;BME280;9346;52.006;4.720;2022-10-31T06:25:05;101921.09;;;11.16;100.00
18436;BME280;9346;52.006;4.720;2022-10-31T06:27:33;101918.59;;;11.14;100.00
18436;BME280;9346;52.006;4.720;2022-10-31T06:30:00;101918.59;;;11.14;100.00
18436;BME280;9346;52.006;4.720;2022-10-31T06:32:27;101920.50;;;11.14;100.00
18436;BME280;9346;52.006;4.720;2022-10-31T06:34:54;101926.00;;;11.14;100.00
18436;BME280;9346;52.006;4.720;2022-10-31T06:37:23;101919.09;;;11.11;100.00
18436;BME280;9346;52.006;4.720;2022-10-31T06:39:49;101920.94;;;11.06;100.00
18436;BME280;9346;52.006;4.720;2022-10-31T06:42:17;101915.25;;;10.96;100.00
18436;BME280;9346;52.006;4.720;2022-10-31T06:44:44;101924.44;;;10.85;100.00
18436;BME280;9346;52.006;4.720;2022-10-31T06:47:11;101918.25;;;10.78;100.00
18436;BME280;9346;52.006;4.720;2022-10-31T06:49:38;101916.09;;;10.80;100.00
18436;BME280;9346;52.006;4.720;2022-10-31T06:52:05;101921.34;;;10.81;100.00
18436;BME280;9346;52.006;4.720;2022-10-31T06:54:34;101910.09;;;10.83;100.00
18436;BME280;9346;52.006;4.720;2022-10-31T06:57:01;101915.91;;;10.86;100.00
18436;BME280;9346;52.006;4.720;2022-10-31T06:59:28;101920.84;;;10.84;100.00
18436;BME280;9346;52.006;4.720;2022-10-31T07:01:57;101919.91;;;10.79;100.00
18436;BME280;9346;52.006;4.720;2022-10-31T07:04:24;101925.84;;;10.71;100.00
18436;BME280;9346;52.006;4.720;2022-10-31T07:06:51;101929.09;;;10.68;100.00
18436;BME280;9346;52.006;4.720;2022-10-31T07:09:21;101940.50;;;10.60;100.00
18436;BME280;9346;52.006;4.720;2022-10-31T07:11:51;101932.41;;;10.53;100.00
18436;BME280;9346;52.006;4.720;2022-10-31T07:14:19;101937.00;;;10.48;100.00
18436;BME280;9346;52.006;4.720;2022-10-31T07:16:50;101938.31;;;10.45;100.00
18436;BME280;9346;52.006;4.720;2022-10-31T07:19:17;101945.50;;;10.46;100.00
18436;BME280;9346;52.006;4.720;2022-10-31T07:21:44;101943.56;;;10.47;100.00
18436;BME280;9346;52.006;4.720;2022-10-31T07:24:11;101939.16;;;10.46;100.00
18436;BME280;9346;52.006;4.720;2022-10-31T07:26:38;101940.00;;;10.46;100.00
18436;BME280;9346;52.006;4.720;2022-10-31T07:29:09;101944.41;;;10.47;100.00
18436;BME280;9346;52.006;4.720;2022-10-31T07:31:36;101934.81;;;10.50;100.00
18436;BME280;9346;52.006;4.720;2022-10-31T07:34:03;101941.41;;;10.49;100.00
18436;BME280;9346;52.006;4.720;2022-10-31T07:36:30;101944.41;;;10.47;100.00
18436;BME280;9346;52.006;4.720;2022-10-31T07:38:57;101942.28;;;10.49;100.00
18436;BME280;9346;52.006;4.720;2022-10-31T07:41:27;101944.28;;;10.54;100.00
18436;BME280;9346;52.006;4.720;2022-10-31T07:43:54;101941.34;;;10.60;100.00
18436;BME280;9346;52.006;4.720;2022-10-31T07:46:23;101948.28;;;10.63;100.00
18436;BME280;9346;52.006;4.720;2022-10-31T07:48:50;101945.03;;;10.66;100.00
18436;BME280;9346;52.006;4.720;2022-10-31T07:51:17;101950.06;;;10.69;100.00
18436;BME280;9346;52.006;4.720;2022-10-31T07:53:44;101945.72;;;10.73;100.00
18436;BME280;9346;52.006;4.720;2022-10-31T07:56:11;101949.97;;;10.80;100.00
18436;BME280;9346;52.006;4.720;2022-10-31T07:58:42;101957.25;;;10.86;100.00
18436;BME280;9346;52.006;4.720;2022-10-31T08:01:09;101960.38;;;10.90;100.00
18436;BME280;9346;52.006;4.720;2022-10-31T08:03:39;101961.03;;;10.97;100.00
18436;BME280;9346;52.006;4.720;2022-10-31T08:06:06;101960.03;;;11.03;100.00
18436;BME280;9346;52.006;4.720;2022-10-31T08:08:34;101952.09;;;11.06;100.00
18436;BME280;9346;52.006;4.720;2022-10-31T08:11:00;101959.59;;;11.11;100.00
18436;BME280;9346;52.006;4.720;2022-10-31T08:13:27;101962.13;;;11.12;100.00
18436;BME280;9346;52.006;4.720;2022-10-31T08:15:55;101953.34;;;11.15;100.00
18436;BME280;9346;52.006;4.720;2022-10-31T08:18:29;101949.72;;;11.15;100.00
18436;BME280;9346;52.006;4.720;2022-10-31T08:20:57;101952.84;;;11.18;100.00
18436;BME280;9346;52.006;4.720;2022-10-31T08:23:24;101950.69;;;11.20;100.00
18436;BME280;9346;52.006;4.720;2022-10-31T08:25:51;101951.50;;;11.21;100.00
18436;BME280;9346;52.006;4.720;2022-10-31T08:28:18;101947.41;;;11.23;100.00
18436;BME280;9346;52.006;4.720;2022-10-31T08:30:45;101953.50;;;11.25;100.00
18436;BME280;9346;52.006;4.720;2022-10-31T08:33:15;101951.34;;;11.27;100.00
18436;BME280;9346;52.006;4.720;2022-10-31T08:35:43;101959.09;;;11.30;100.00
18436;BME280;9346;52.006;4.720;2022-10-31T08:38:12;101945.06;;;11.32;100.00
18436;BME280;9346;52.006;4.720;2022-10-31T08:40:40;101954.25;;;11.38;100.00
18436;BME280;9346;52.006;4.720;2022-10-31T08:43:12;101962.31;;;11.44;100.00
18436;BME280;9346;52.006;4.720;2022-10-31T08:45:41;101956.91;;;11.49;100.00
18436;BME280;9346;52.006;4.720;2022-10-31T08:48:10;101954.78;;;11.56;100.00
18436;BME280;9346;52.006;4.720;2022-10-31T08:50:37;101952.47;;;11.65;100.00
18436;BME280;9346;52.006;4.720;2022-10-31T08:53:06;101946.78;;;11.71;100.00
18436;BME280;9346;52.006;4.720;2022-10-31T08:55:36;101953.78;;;11.79;100.00
18436;BME280;9346;52.006;4.720;2022-10-31T08:58:05;101945.28;;;11.85;100.00
18436;BME280;9346;52.006;4.720;2022-10-31T09:00:32;101941.25;;;11.93;100.00
18436;BME280;9346;52.006;4.720;2022-10-31T09:03:00;101943.31;;;12.02;100.00
18436;BME280;9346;52.006;4.720;2022-10-31T09:05:27;101943.44;;;12.12;100.00
18436;BME280;9346;52.006;4.720;2022-10-31T09:07:55;101936.09;;;12.23;100.00
18436;BME280;9346;52.006;4.720;2022-10-31T09:10:23;101929.03;;;12.32;100.00
18436;BME280;9346;52.006;4.720;2022-10-31T09:12:56;101927.22;;;12.42;100.00
18436;BME280;9346;52.006;4.720;2022-10-31T09:15:24;101923.69;;;12.52;100.00
18436;BME280;9346;52.006;4.720;2022-10-31T09:17:51;101926.31;;;12.63;100.00
18436;BME280;9346;52.006;4.720;2022-10-31T09:20:19;101922.56;;;12.74;100.00
18436;BME280;9346;52.006;4.720;2022-10-31T09:22:46;101912.94;;;12.82;100.00
18436;BME280;9346;52.006;4.720;2022-10-31T09:25:14;101929.38;;;12.93;100.00
18436;BME280;9346;52.006;4.720;2022-10-31T09:27:40;101920.28;;;12.98;100.00
18436;BME280;9346;52.006;4.720;2022-10-31T09:30:11;101917.84;;;13.01;100.00
18436;BME280;9346;52.006;4.720;2022-10-31T09:32:38;101912.66;;;13.10;100.00
18436;BME280;9346;52.006;4.720;2022-10-31T09:35:06;101908.28;;;13.14;100.00
18436;BME280;9346;52.006;4.720;2022-10-31T09:37:33;101899.19;;;13.18;100.00
18436;BME280;9346;52.006;4.720;2022-10-31T09:40:00;101910.56;;;13.27;100.00
18436;BME280;9346;52.006;4.720;2022-10-31T09:42:37;101906.16;;;13.31;100.00
18436;BME280;9346;52.006;4.720;2022-10-31T09:45:15;101910.38;;;13.38;100.00
18436;BME280;9346;52.006;4.720;2022-10-31T09:47:54;101899.06;;;13.45;100.00
18436;BME280;9346;52.006;4.720;2022-10-31T09:50:26;101908.78;;;13.52;100.00
18436;BME280;9346;52.006;4.720;2022-10-31T09:53:00;101902.44;;;13.57;100.00
18436;BME280;9346;52.006;4.720;2022-10-31T09:55:31;101902.75;;;13.61;100.00
18436;BME280;9346;52.006;4.720;2022-10-31T09:58:03;101898.88;;;13.67;100.00
18436;BME280;9346;52.006;4.720;2022-10-31T10:00:32;101899.19;;;13.70;100.00
18436;BME280;9346;52.006;4.720;2022-10-31T10:03:04;101891.19;;;13.74;100.00
18436;BME280;9346;52.006;4.720;2022-10-31T10:05:38;101884.56;;;13.80;100.00
18436;BME280;9346;52.006;4.720;2022-10-31T10:08:10;101891.78;;;13.86;100.00
18436;BME280;9346;52.006;4.720;2022-10-31T10:10:48;101889.63;;;13.93;100.00
18436;BME280;9346;52.006;4.720;2022-10-31T10:13:28;101886.28;;;13.96;100.00
18436;BME280;9346;52.006;4.720;2022-10-31T10:16:11;101880.78;;;14.01;100.00
18436;BME280;9346;52.006;4.720;2022-10-31T10:18:47;101868.88;;;14.05;100.00
18436;BME280;9346;52.006;4.720;2022-10-31T10:21:25;101873.06;;;14.13;100.00
18436;BME280;9346;52.006;4.720;2022-10-31T10:24:05;101866.44;;;14.19;100.00
18436;BME280;9346;52.006;4.720;2022-10-31T10:26:37;101865.06;;;14.26;100.00
18436;BME280;9346;52.006;4.720;2022-10-31T10:29:18;101857.34;;;14.33;100.00
18436;BME280;9346;52.006;4.720;2022-10-31T10:31:51;101856.50;;;14.33;100.00
18436;BME280;9346;52.006;4.720;2022-10-31T10:34:22;101849.03;;;14.38;100.00
18436;BME280;9346;52.006;4.720;2022-10-31T10:36:53;101841.53;;;14.44;100.00
18436;BME280;9346;52.006;4.720;2022-10-31T10:39:26;101844.31;;;14.49;100.00
18436;BME280;9346;52.006;4.720;2022-10-31T10:41:55;101841.00;;;14.57;100.00
18436;BME280;9346;52.006;4.720;2022-10-31T10:44:46;101831.84;;;14.71;100.00
18436;BME280;9346;52.006;4.720;2022-10-31T10:47:42;101818.56;;;14.78;100.00
18436;BME280;9346;52.006;4.720;2022-10-31T10:50:14;101812.44;;;14.86;100.00
18436;BME280;9346;52.006;4.720;2022-10-31T10:52:48;101828.50;;;14.84;100.00
18436;BME280;9346;52.006;4.720;2022-10-31T10:55:28;101820.19;;;14.84;100.00
18436;BME280;9346;52.006;4.720;2022-10-31T10:57:59;101818.81;;;14.87;100.00
18436;BME280;9346;52.006;4.720;2022-10-31T11:00:29;101813.53;;;14.90;100.00
18436;BME280;9346;52.006;4.720;2022-10-31T11:02:59;101805.50;;;14.94;100.00
18436;BME280;9346;52.006;4.720;2022-10-31T11:05:33;101791.59;;;14.99;100.00
18436;BME280;9346;52.006;4.720;2022-10-31T11:08:00;101794.09;;;15.05;100.00
18436;BME280;9346;52.006;4.720;2022-10-31T11:10:28;101801.81;;;15.13;100.00
18436;BME280;9346;52.006;4.720;2022-10-31T11:13:06;101797.94;;;15.19;100.00
18436;BME280;9346;52.006;4.720;2022-10-31T11:15:37;101800.41;;;15.26;100.00
18436;BME280;9346;52.006;4.720;2022-10-31T11:18:17;101800.66;;;15.29;100.00
18436;BME280;9346;52.006;4.720;2022-10-31T11:20:51;101796.25;;;15.33;100.00
18436;BME280;9346;52.006;4.720;2022-10-31T11:23:20;101794.28;;;15.39;100.00
18436;BME280;9346;52.006;4.720;2022-10-31T11:25:54;101784.28;;;15.43;100.00
18436;BME280;9346;52.006;4.720;2022-10-31T11:28:22;101772.59;;;15.46;100.00
18436;BME280;9346;52.006;4.720;2022-10-31T11:30:53;101775.38;;;15.46;100.00
18436;BME280;9346;52.006;4.720;2022-10-31T11:33:28;101774.25;;;15.52;100.00
18436;BME280;9346;52.006;4.720;2022-10-31T11:35:56;101770.91;;;15.55;100.00
18436;BME280;9346;52.006;4.720;2022-10-31T11:38:26;101761.72;;;15.59;100.00
18436;BME280;9346;52.006;4.720;2022-10-31T11:40:59;101752.53;;;15.64;100.00
18436;BME280;9346;52.006;4.720;2022-10-31T11:43:29;101745.28;;;15.68;100.00
18436;BME280;9346;52.006;4.720;2022-10-31T11:45:56;101734.41;;;15.72;100.00
18436;BME280;9346;52.006;4.720;2022-10-31T11:48:25;101734.13;;;15.73;100.00
18436;BME280;9346;52.006;4.720;2022-10-31T11:50:54;101728.00;;;15.76;100.00
18436;BME280;9346;52.006;4.720;2022-10-31T11:53:26;101736.34;;;15.76;100.00
18436;BME280;9346;52.006;4.720;2022-10-31T11:56:03;101728.28;;;15.80;100.00
18436;BME280;9346;52.006;4.720;2022-10-31T11:58:33;101725.22;;;15.81;100.00
18436;BME280;9346;52.006;4.720;2022-10-31T12:01:01;101727.13;;;15.86;100.00
18436;BME280;9346;52.006;4.720;2022-10-31T12:03:50;101732.63;;;15.91;100.00
18436;BME280;9346;52.006;4.720;2022-10-31T12:06:21;101716.25;;;15.89;100.00
18436;BME280;9346;52.006;4.720;2022-10-31T12:08:49;101708.47;;;15.91;100.00
18436;BME280;9346;52.006;4.720;2022-10-31T12:11:28;101702.28;;;15.99;100.00
18436;BME280;9346;52.006;4.720;2022-10-31T12:14:10;101699.75;;;16.03;100.00
18436;BME280;9346;52.006;4.720;2022-10-31T12:16:48;101688.91;;;16.06;100.00
18436;BME280;9346;52.006;4.720;2022-10-31T12:19:27;101675.81;;;16.12;100.00
18436;BME280;9346;52.006;4.720;2022-10-31T12:22:08;101674.38;;;16.14;100.00
18436;BME280;9346;52.006;4.720;2022-10-31T12:24:48;101659.91;;;16.17;100.00
18436;BME280;9346;52.006;4.720;2022-10-31T12:27:25;101655.97;;;16.23;100.00
18436;BME280;9346;52.006;4.720;2022-10-31T12:30:15;101643.97;;;16.28;100.00
18436;BME280;9346;52.006;4.720;2022-10-31T12:32:56;101628.94;;;16.29;100.00
18436;BME280;9346;52.006;4.720;2022-10-31T12:35:34;101629.78;;;16.29;100.00
18436;BME280;9346;52.006;4.720;2022-10-31T12:38:15;101618.66;;;16.29;100.00
18436;BME280;9346;52.006;4.720;2022-10-31T12:40:53;101605.25;;;16.31;100.00
18436;BME280;9346;52.006;4.720;2022-10-31T12:43:35;101593.56;;;16.34;100.00
18436;BME280;9346;52.006;4.720;2022-10-31T12:46:07;101584.41;;;16.34;100.00
18436;BME280;9346;52.006;4.720;2022-10-31T12:49:00;101575.22;;;16.33;100.00
18436;BME280;9346;52.006;4.720;2022-10-31T12:51:42;101569.97;;;16.32;100.00
18436;BME280;9346;52.006;4.720;2022-10-31T12:54:29;101557.41;;;16.34;100.00
18436;BME280;9346;52.006;4.720;2022-10-31T12:57:11;101553.53;;;16.35;100.00
18436;BME280;9346;52.006;4.720;2022-10-31T12:59:44;101544.06;;;16.36;100.00
18436;BME280;9346;52.006;4.720;2022-10-31T13:02:18;101536.25;;;16.38;100.00
18436;BME280;9346;52.006;4.720;2022-10-31T13:04:48;101537.91;;;16.39;100.00
18436;BME280;9346;52.006;4.720;2022-10-31T13:07:22;101533.97;;;16.45;100.00